Portada
METAR-TAF:

METAR-TAF

Aeroports :

Kosrae, Micronèsia

latitud: 05-21N, longitud: 162-57E, altitud: 3 m

METAR: manca

Hora: 16:02 (05:02 UTC)

Pronòstic

L'informe es va fer fa 26 hores i 49 minuts, a les 02:13 UTC
Pronòstic vàlid del 25 a les 02 UTC al 25 a les 24 UTC
Vent 6 kt amb direcció variable
Visibilitat: 10 km
Cel ennuvolat a una alçada de 1800 ft
Cel ennuvolat a una alçada de 13000 ft
xàfecs en les proximitats
Temporalment
l' 25 a les 02 UTC al 25 a les 04 UTC
Visibilitat: 6.4 km
Cel cobert a una alçada de 1800 ft
xàfecs de pluja
A partir de les 25 a les 0700 UTC
Vent 7 kt del Est/Nord-Est
Visibilitat: 10 km
Núvols disperses a una alçada de 1800 ft
Cel ennuvolat a una alçada de 13000 ft
xàfecs en les proximitats

TAF: PTSA 250213Z 2502/2524 VRB06KT P6SM VCSH BKN018 BKN130 TEMPO 2502/2504 4SM SHRA OVC018 FM250700 07007KT P6SM VCSH SCT018 BKN130

Observacions i pronòstics meteorològics de més de 4000 aeroports (METAR i TAF).

Les estacions disponibles són els punts grocs i vermells al mapa.

Posi el ratolí al punt desitjat per veure el nom de l'estació.

Feu clic per veure les observacions i els pronòstics meteorològics.

Per canviar el mapa: feu clic els botons verds amb una creu de color negre per apropar; al botó verd amb un guió per allunyar la imatge; o en les fletxes verdes per a mapes adjacents.


METAR-TAF: